Time;durP1;ratioP1;P1;durP2;ratioP2;P2;SDS_P1;SDS_P2;PMS_P1;PMS_P2;Temp;Humidity;BMP_temperature;BMP_pressure;BME280_temperature;BME280_humidity;BME280_pressure;Samples;Min_cycle;Max_cycle;Signal;HPM_P1;HPM_P2
2022/12/25 00:00:19;;;;;;;41.45;3.72;;;;;;;19.82;62.71;99627.72;7313649;19;129114;-66
2022/12/25 00:02:44;;;;;;;18.25;1.88;;;;;;;19.84;63.06;99632.81;7314751;19;130178;-67
2022/12/25 00:05:09;;;;;;;24.75;2.83;;;;;;;19.90;63.11;99632.31;7311501;19;131944;-66
2022/12/25 00:07:35;;;;;;;18.70;1.83;;;;;;;19.90;63.49;99627.09;7312976;19;128994;-67
2022/12/25 00:10:00;;;;;;;42.20;4.13;;;;;;;19.92;62.68;99627.78;7313385;19;128885;-74
2022/12/25 00:12:25;;;;;;;28.70;2.88;;;;;;;19.95;63.50;99624.94;7312042;19;129304;-65
2022/12/25 00:14:51;;;;;;;27.25;3.22;;;;;;;19.95;62.80;99619.72;7313145;19;129614;-68
2022/12/25 00:17:16;;;;;;;32.28;3.20;;;;;;;19.97;62.92;99617.78;7310216;19;129050;-65
2022/12/25 00:19:41;;;;;;;24.27;2.30;;;;;;;19.94;63.67;99616.28;7313918;19;128928;-65
2022/12/25 00:22:07;;;;;;;14.23;1.65;;;;;;;19.93;63.30;99619.00;7311910;19;129887;-67
2022/12/25 00:24:32;;;;;;;9.00;1.27;;;;;;;19.92;63.47;99623.41;7312629;19;130389;-67
2022/12/25 00:26:57;;;;;;;34.83;3.35;;;;;;;19.85;63.78;99608.41;7311433;19;129352;-66
2022/12/25 00:29:23;;;;;;;30.83;3.45;;;;;;;19.96;62.79;99631.81;7310829;19;129122;-67
2022/12/25 00:31:48;;;;;;;29.08;3.28;;;;;;;19.98;63.36;99632.50;7310407;19;129736;-65
2022/12/25 00:34:13;;;;;;;18.58;1.65;;;;;;;19.98;63.72;99628.09;7312371;19;129351;-66
2022/12/25 00:36:39;;;;;;;36.30;3.53;;;;;;;19.99;63.30;99628.94;7309106;19;129066;-67
2022/12/25 00:39:06;;;;;;;18.30;1.88;;;;;;;19.94;63.28;99625.88;7315549;19;129180;-64
2022/12/25 00:44:15;;;;;;;14.02;1.70;;;;;;;19.93;63.27;99624.22;7312857;19;129399;-66
2022/12/25 00:46:41;;;;;;;30.25;3.08;;;;;;;19.90;62.67;99627.09;7308431;19;129922;-65
2022/12/25 00:49:06;;;;;;;35.15;3.55;;;;;;;19.87;62.79;99620.34;7312733;19;129486;-66
2022/12/25 00:51:32;;;;;;;12.70;1.38;;;;;;;19.85;63.25;99617.03;7310751;19;130755;-68
2022/12/25 00:53:58;;;;;;;11.43;1.63;;;;;;;19.89;62.76;99617.59;7312297;19;129526;-66
2022/12/25 00:56:23;;;;;;;23.25;2.33;;;;;;;19.79;63.04;99601.06;7308795;19;129188;-65
2022/12/25 00:58:48;;;;;;;17.02;2.33;;;;;;;19.92;63.72;99612.13;7310449;19;130740;-66
2022/12/25 01:01:14;;;;;;;22.05;2.20;;;;;;;19.88;63.62;99602.91;7309988;19;129466;-67
2022/12/25 01:03:39;;;;;;;12.73;1.45;;;;;;;19.89;63.84;99601.94;7311329;19;130420;-66
2022/12/25 01:06:06;;;;;;;23.80;2.25;;;;;;;19.90;63.55;99606.22;7309753;19;129153;-66
2022/12/25 01:08:34;;;;;;;33.17;3.45;;;;;;;19.88;63.16;99605.53;7310431;19;129361;-67
2022/12/25 01:11:05;;;;;;;32.88;4.00;;;;;;;19.91;63.84;99626.13;7309435;19;129075;-64
2022/12/25 01:13:33;;;;;;;20.83;2.42;;;;;;;19.91;62.92;99629.59;7310445;19;129876;-66
2022/12/25 01:16:07;;;;;;;33.47;3.83;;;;;;;19.91;63.91;99618.31;7308630;19;130023;-67
2022/12/25 01:18:33;;;;;;;37.53;3.78;;;;;;;19.91;62.77;99616.53;7311181;19;128930;-66
2022/12/25 01:21:08;;;;;;;21.48;2.40;;;;;;;19.93;63.56;99616.41;7309986;19;129013;-67
2022/12/25 01:23:33;;;;;;;14.65;1.85;;;;;;;19.91;62.83;99615.69;7312507;19;129095;-68
2022/12/25 01:26:06;;;;;;;25.38;2.55;;;;;;;19.93;63.79;99621.63;7309818;19;131046;-68
2022/12/25 01:28:32;;;;;;;30.23;2.72;;;;;;;19.90;62.41;99614.88;7310739;19;131366;-66
2022/12/25 01:30:57;;;;;;;42.80;3.65;;;;;;;19.89;62.68;99617.59;7311405;19;129234;-67
2022/12/25 01:33:23;;;;;;;44.67;4.45;;;;;;;19.91;62.63;99631.34;7309878;19;130570;-67
2022/12/25 01:35:48;;;;;;;26.90;2.92;;;;;;;19.92;63.07;99622.56;7307894;19;130015;-65
2022/12/25 01:38:14;;;;;;;29.23;2.70;;;;;;;19.92;62.86;99622.56;7309476;19;129714;-67
2022/12/25 01:40:39;;;;;;;24.83;2.60;;;;;;;19.92;62.30;99638.22;7307344;19;130503;-68
2022/12/25 01:43:17;;;;;;;19.08;1.92;;;;;;;19.80;63.20;99624.41;7307611;19;132291;-66
2022/12/25 01:45:46;;;;;;;19.52;2.05;;;;;;;19.91;62.90;99642.63;7308376;19;128925;-66
2022/12/25 01:48:18;;;;;;;13.68;1.35;;;;;;;19.91;62.54;99647.00;7310029;19;129040;-67
2022/12/25 01:50:48;;;;;;;35.00;3.10;;;;;;;19.90;62.67;99653.19;7309388;19;129036;-67
2022/12/25 01:53:14;;;;;;;21.73;2.10;;;;;;;19.90;62.51;99658.41;7311343;19;129732;-65
2022/12/25 01:55:42;;;;;;;26.83;2.92;;;;;;;19.90;62.81;99661.81;7308796;19;128901;-67
2022/12/25 01:58:08;;;;;;;15.35;1.65;;;;;;;19.89;63.04;99659.34;7308286;19;129243;-65
2022/12/25 02:00:33;;;;;;;28.20;2.53;;;;;;;19.66;61.69;99652.59;7309070;19;129117;-64
2022/12/25 02:02:59;;;;;;;34.72;3.47;;;;;;;19.55;62.24;99650.03;7309572;19;129600;-66
2022/12/25 02:05:28;;;;;;;15.05;1.67;;;;;;;19.54;62.36;99656.19;7306621;19;129567;-65
2022/12/25 02:07:56;;;;;;;15.57;1.77;;;;;;;19.50;61.86;99650.44;7309023;19;129190;-65
2022/12/25 02:10:22;;;;;;;34.15;3.35;;;;;;;19.59;61.59;99656.66;7308707;19;129699;-66
2022/12/25 02:12:48;;;;;;;29.48;2.72;;;;;;;19.64;61.54;99663.16;7310209;19;129354;-65
2022/12/25 02:15:17;;;;;;;30.10;3.35;;;;;;;19.61;61.29;99644.31;7309230;19;129121;-68
2022/12/25 02:17:48;;;;;;;16.75;1.77;;;;;;;19.77;61.42;99655.13;7304941;19;129168;-67
2022/12/25 02:20:25;;;;;;;24.15;2.58;;;;;;;19.82;61.29;99661.63;7312708;19;131736;-67
2022/12/25 02:22:54;;;;;;;;;;;;;;;19.84;61.26;99659.75;7315707;19;132474;-67
2022/12/25 02:25:19;;;;;;;;;;;;;;;19.84;61.09;99672.78;7315788;19;129483;-67
2022/12/25 02:28:02;;;;;;;18.63;1.93;;;;;;;19.85;60.93;99666.59;7316088;19;129010;-67
2022/12/25 02:30:34;;;;;;;16.25;2.00;;;;;;;19.86;60.86;99667.44;7316077;19;129686;-66
2022/12/25 02:35:55;;;;;;;25.05;2.95;;;;;;;19.70;61.41;99648.78;7314193;19;129743;-66
2022/12/25 02:38:25;;;;;;;26.25;2.65;;;;;;;19.66;62.39;99652.59;7316595;19;128900;-65
2022/12/25 02:40:57;;;;;;;38.03;3.70;;;;;;;19.74;61.44;99666.66;7314232;19;129845;-67
2022/12/25 03:11:59;;;;;;;9.95;1.25;;;;;;;19.81;64.20;99665.22;7313328;19;130156;-67
2022/12/25 03:17:10;;;;;;;38.97;3.50;;;;;;;19.90;63.38;99661.03;7312047;19;129468;-66
2022/12/25 03:27:59;;;;;;;24.67;2.45;;;;;;;19.89;63.46;99654.13;7316108;19;129316;-65
2022/12/25 03:31:12;;;;;;;26.08;2.72;;;;;;;19.91;64.02;99663.50;7312759;19;129373;-68
2022/12/25 03:36:55;;;;;;;31.88;2.95;;;;;;;19.92;64.35;99659.94;7311732;19;129441;-66
2022/12/25 04:38:02;;;;;;;30.60;3.17;;;;;;;19.85;61.21;99697.91;7309634;19;129392;-65
2022/12/25 04:40:28;;;;;;;14.13;1.70;;;;;;;19.81;62.03;99696.53;7310500;19;129289;-65
2022/12/25 04:42:53;;;;;;;22.60;2.65;;;;;;;19.78;61.39;99699.38;7309251;19;129329;-66
2022/12/25 04:45:19;;;;;;;24.90;2.75;;;;;;;19.76;62.12;99695.22;7309727;19;129193;-66
2022/12/25 04:47:44;;;;;;;28.70;2.78;;;;;;;19.64;62.20;99683.19;7310975;19;129577;-65
2022/12/25 04:50:10;;;;;;;22.38;2.70;;;;;;;19.73;62.44;99700.69;7309744;19;128928;-67
2022/12/25 04:52:37;;;;;;;14.15;1.70;;;;;;;19.67;62.79;99685.56;7311534;19;129189;-65
2022/12/25 04:55:02;;;;;;;;;;;;;;;19.77;64.08;99707.31;7310579;19;130334;-67
2022/12/25 04:57:28;;;;;;;27.80;3.08;;;;;;;19.73;62.94;99705.91;7312066;19;129301;-68
2022/12/25 04:59:53;;;;;;;20.67;2.05;;;;;;;19.76;62.56;99710.88;7310957;19;129041;-64
2022/12/25 05:02:18;;;;;;;20.25;2.13;;;;;;;19.78;62.91;99708.97;7307907;19;129947;-67
2022/12/25 05:04:45;;;;;;;43.28;3.80;;;;;;;19.79;64.04;99715.84;7311363;19;129581;-66
2022/12/25 05:07:10;;;;;;;;;;;;;;;19.77;64.39;99717.75;7311422;19;130808;-65
2022/12/25 05:09:40;;;;;;;15.37;1.77;;;;;;;19.70;64.29;99704.38;7311714;19;129625;-65
2022/12/25 05:12:06;;;;;;;12.48;1.52;;;;;;;19.83;62.57;99717.25;7308610;19;129016;-65
2022/12/25 05:14:31;;;;;;;37.78;3.35;;;;;;;19.81;63.79;99713.94;7308625;19;132900;-67
2022/12/25 05:16:56;;;;;;;21.67;2.15;;;;;;;19.89;63.76;99719.34;7308901;19;129198;-67
2022/12/25 05:19:22;;;;;;;29.23;3.25;;;;;;;19.88;63.32;99715.94;7310061;19;130445;-66
2022/12/25 05:21:47;;;;;;;20.80;2.08;;;;;;;19.80;63.77;99697.44;7309152;19;129449;-67
2022/12/25 05:24:12;;;;;;;32.30;2.97;;;;;;;19.91;63.47;99715.69;7310924;19;129175;-68
2022/12/25 05:26:38;;;;;;;16.20;1.65;;;;;;;19.90;63.39;99705.38;7310879;19;129025;-67
2022/12/25 05:29:03;;;;;;;18.13;2.25;;;;;;;19.90;63.18;99702.78;7310623;19;129161;-67
2022/12/25 05:31:28;;;;;;;25.23;2.78;;;;;;;19.79;63.83;99689.75;7308366;19;129319;-66
2022/12/25 05:33:54;;;;;;;45.33;4.50;;;;;;;19.87;63.40;99703.00;7311035;19;129241;-67
2022/12/25 05:36:19;;;;;;;22.02;2.40;;;;;;;19.75;63.00;99704.81;7310265;19;130433;-66
2022/12/25 05:38:45;;;;;;;18.67;2.08;;;;;;;19.69;62.75;99701.88;7311608;19;129291;-66
2022/12/25 05:41:10;;;;;;;26.58;2.67;;;;;;;19.65;62.35;99714.34;7308492;19;129668;-66
2022/12/25 05:43:36;;;;;;;33.72;3.42;;;;;;;19.64;62.68;99723.13;7309706;19;129442;-64
2022/12/25 05:46:06;;;;;;;15.88;1.80;;;;;;;19.68;63.11;99715.91;7308914;19;128926;-65
2022/12/25 05:48:34;;;;;;;23.98;2.80;;;;;;;19.73;61.52;99721.56;7309342;19;130481;-66
2022/12/25 05:51:07;;;;;;;26.77;2.85;;;;;;;19.80;61.69;99726.16;7308439;19;129833;-68
2022/12/25 05:53:34;;;;;;;35.30;3.40;;;;;;;19.87;61.09;99718.66;7309789;19;129309;-67
2022/12/25 05:56:02;;;;;;;21.60;2.67;;;;;;;19.89;61.26;99711.53;7316149;19;129978;-67
2022/12/25 05:58:28;;;;;;;20.98;2.20;;;;;;;19.97;60.96;99714.34;7316299;19;129922;-65
2022/12/25 06:00:54;;;;;;;14.25;1.90;;;;;;;19.96;61.19;99715.31;7315368;19;129935;-68
2022/12/25 06:03:19;;;;;;;35.20;3.22;;;;;;;19.95;61.22;99708.44;7317658;19;129230;-65
2022/12/25 06:05:45;;;;;;;19.35;2.00;;;;;;;19.96;60.82;99716.13;7315383;19;129299;-66
2022/12/25 06:08:10;;;;;;;21.08;2.33;;;;;;;19.95;60.46;99722.28;7316936;19;130111;-66
2022/12/25 06:10:35;;;;;;;14.82;1.58;;;;;;;19.92;61.36;99717.31;7315757;19;129936;-65
2022/12/25 06:13:02;;;;;;;31.67;3.25;;;;;;;19.93;61.60;99697.28;7315856;19;129643;-67
2022/12/25 06:15:28;;;;;;;21.63;3.22;;;;;;;19.90;61.08;99697.56;7315141;19;129007;-66
2022/12/25 06:17:53;;;;;;;16.17;1.92;;;;;;;19.85;61.66;99692.69;7314449;19;129124;-67
2022/12/25 06:20:18;;;;;;;25.40;2.67;;;;;;;19.80;61.38;99696.66;7314526;19;129265;-67
2022/12/25 06:22:44;;;;;;;30.38;3.00;;;;;;;19.78;61.46;99703.75;7316632;19;130129;-64
2022/12/25 06:25:09;;;;;;;29.02;3.38;;;;;;;19.77;62.26;99702.94;7316863;19;129231;-68
2022/12/25 06:27:34;;;;;;;19.20;2.50;;;;;;;19.81;62.22;99709.56;7314489;19;130111;-66
2022/12/25 06:30:00;;;;;;;33.22;3.60;;;;;;;19.78;62.92;99698.53;7315624;19;129143;-65
2022/12/25 06:32:25;;;;;;;24.38;2.65;;;;;;;19.79;62.69;99693.19;7311836;19;133004;-64
2022/12/25 06:34:50;;;;;;;25.67;2.80;;;;;;;19.69;62.48;99674.03;7315994;19;129641;-66
2022/12/25 06:37:16;;;;;;;20.75;2.00;;;;;;;19.79;62.91;99685.38;7313864;19;129163;-65
2022/12/25 06:39:41;;;;;;;37.38;3.13;;;;;;;19.77;63.26;99683.81;7313925;19;132181;-66
2022/12/25 06:42:06;;;;;;;21.35;2.13;;;;;;;19.78;63.49;99695.94;7315928;19;129699;-68
2022/12/25 06:44:32;;;;;;;18.67;1.80;;;;;;;19.82;62.30;99692.94;7317205;19;129639;-64
2022/12/25 06:46:58;;;;;;;20.42;2.28;;;;;;;19.82;64.36;99695.56;7314342;19;130221;-66
2022/12/25 06:49:23;;;;;;;46.40;4.18;;;;;;;19.85;63.74;99699.72;7315428;19;129430;-65
2022/12/25 06:51:48;;;;;;;28.95;3.10;;;;;;;19.87;64.07;99698.63;7314286;19;129220;-68
2022/12/25 06:54:14;;;;;;;16.00;1.65;;;;;;;19.80;63.66;99689.63;7316032;19;129608;-67
2022/12/25 06:56:39;;;;;;;16.20;1.55;;;;;;;19.89;62.83;99706.31;7313845;19;129615;-66
2022/12/25 06:59:07;;;;;;;34.15;3.42;;;;;;;19.84;62.41;99714.53;7314312;19;129106;-66
2022/12/25 07:01:45;;;;;;;20.35;2.38;;;;;;;19.68;63.10;99706.31;7313557;19;130781;-67
2022/12/25 07:04:15;;;;;;;21.27;2.30;;;;;;;19.76;62.74;99722.16;7315948;19;129881;-66
2022/12/25 07:06:41;;;;;;;23.15;2.53;;;;;;;19.75;61.62;99719.66;7312664;19;129726;-64
2022/12/25 07:09:06;;;;;;;39.25;3.78;;;;;;;19.82;62.16;99711.22;7314517;19;129248;-68
2022/12/25 07:11:31;;;;;;;36.45;3.22;;;;;;;19.88;61.58;99713.34;7311459;19;129434;-67
2022/12/25 07:13:57;;;;;;;24.10;2.97;;;;;;;19.92;61.00;99711.28;7314130;19;129244;-65
2022/12/25 07:16:22;;;;;;;18.65;1.92;;;;;;;19.98;60.81;99716.81;7313063;19;129506;-67
2022/12/25 07:18:48;;;;;;;29.40;2.78;;;;;;;20.06;60.47;99716.19;7312381;19;129215;-68
2022/12/25 07:21:16;;;;;;;23.70;2.13;;;;;;;20.07;61.18;99715.22;7313768;19;131273;-67
2022/12/25 07:23:44;;;;;;;13.23;1.52;;;;;;;20.07;60.87;99716.06;7315936;19;129157;-65
2022/12/25 07:26:10;;;;;;;14.93;1.67;;;;;;;20.03;60.94;99719.06;7312252;19;131163;-67
2022/12/25 07:28:36;;;;;;;26.70;2.75;;;;;;;20.05;61.35;99732.78;7314040;19;130516;-66
2022/12/25 07:31:08;;;;;;;28.45;2.65;;;;;;;20.03;61.03;99724.28;7313298;19;129581;-65
2022/12/25 07:33:34;;;;;;;18.58;2.05;;;;;;;20.01;61.16;99726.19;7317035;19;129161;-67
2022/12/25 07:35:59;;;;;;;19.80;2.38;;;;;;;19.99;60.79;99728.94;7312809;19;129843;-67
2022/12/25 07:38:25;;;;;;;26.30;2.65;;;;;;;19.96;61.42;99728.34;7311436;19;130965;-65
2022/12/25 07:40:51;;;;;;;27.70;2.70;;;;;;;19.80;61.03;99713.09;7312902;19;129107;-68
2022/12/25 07:43:16;;;;;;;13.27;1.42;;;;;;;19.89;62.28;99735.00;7314215;19;129111;-68
2022/12/25 07:45:42;;;;;;;23.00;2.53;;;;;;;19.84;62.04;99739.78;7312896;19;130466;-68
2022/12/25 07:48:07;;;;;;;38.40;3.65;;;;;;;19.82;62.33;99736.47;7313428;19;129309;-66
2022/12/25 07:50:32;;;;;;;10.15;1.23;;;;;;;19.81;61.91;99740.03;7314287;19;129499;-65
2022/12/25 07:52:58;;;;;;;19.13;2.15;;;;;;;19.84;62.64;99740.63;7313903;19;129059;-67
2022/12/25 07:55:23;;;;;;;18.00;2.10;;;;;;;19.80;63.12;99739.19;7312299;19;129773;-66
2022/12/25 07:57:49;;;;;;;28.98;3.22;;;;;;;19.80;62.23;99748.81;7308182;19;131885;-65
2022/12/25 08:00:15;;;;;;;16.95;1.65;;;;;;;19.82;61.97;99746.88;7313884;19;130768;-65
2022/12/25 08:02:40;;;;;;;15.03;1.50;;;;;;;19.84;63.10;99750.22;7314279;19;129402;-65
2022/12/25 08:05:06;;;;;;;58.22;7.18;;;;;;;19.81;63.12;99748.69;7312617;19;129120;-67
2022/12/25 08:07:31;;;;;;;40.53;4.03;;;;;;;19.85;63.26;99752.69;7312998;19;131004;-65
2022/12/25 08:09:57;;;;;;;19.75;2.45;;;;;;;19.84;63.52;99755.44;7311879;19;130573;-67
2022/12/25 08:12:22;;;;;;;17.58;2.30;;;;;;;19.87;63.55;99760.38;7306719;19;130135;-66
2022/12/25 08:14:47;;;;;;;15.68;1.85;;;;;;;19.87;63.33;99760.38;7313143;19;128871;-67
2022/12/25 08:17:13;;;;;;;34.13;3.45;;;;;;;19.90;62.78;99760.97;7308354;19;129098;-67
2022/12/25 08:19:38;;;;;;;17.83;1.65;;;;;;;19.91;63.17;99760.03;7314710;19;129904;-67
2022/12/25 08:22:03;;;;;;;5.13;0.75;;;;;;;19.94;63.48;99759.78;7308468;19;129672;-67
2022/12/25 08:24:29;;;;;;;44.47;3.72;;;;;;;19.95;63.40;99743.16;7312074;19;131157;-68
2022/12/25 08:26:54;;;;;;;33.78;3.20;;;;;;;19.87;63.41;99744.75;7312967;19;130148;-66
2022/12/25 08:29:19;;;;;;;18.95;2.17;;;;;;;19.86;62.93;99748.31;7313227;19;129381;-65
2022/12/25 08:31:45;;;;;;;15.32;1.65;;;;;;;19.78;62.05;99748.13;7311349;19;130035;-65
2022/12/25 08:34:10;;;;;;;39.25;3.55;;;;;;;19.79;61.44;99754.97;7312806;19;128885;-65
2022/12/25 08:36:36;;;;;;;24.85;2.65;;;;;;;19.79;62.00;99747.97;7308664;19;130283;-66
2022/12/25 08:39:02;;;;;;;24.63;2.60;;;;;;;19.86;61.24;99750.91;7313276;19;129625;-68
2022/12/25 08:41:28;;;;;;;14.83;2.00;;;;;;;19.93;61.23;99752.09;7309298;19;129038;-66
2022/12/25 08:43:53;;;;;;;40.33;3.67;;;;;;;19.99;60.66;99744.59;7313024;19;128946;-66
2022/12/25 08:46:19;;;;;;;22.63;2.55;;;;;;;20.08;60.69;99748.22;7311833;19;130077;-67
2022/12/25 08:48:48;;;;;;;11.48;1.58;;;;;;;20.06;60.92;99756.19;7313003;19;129564;-67
2022/12/25 08:51:16;;;;;;;16.70;1.80;;;;;;;20.10;61.02;99744.53;7310341;19;129485;-66
2022/12/25 08:53:43;;;;;;;36.50;3.35;;;;;;;20.04;61.11;99741.59;7310729;19;129852;-66
2022/12/25 08:56:09;;;;;;;27.45;2.80;;;;;;;19.95;60.65;99721.47;7309983;19;129174;-67
2022/12/25 08:58:35;;;;;;;16.75;1.98;;;;;;;20.03;60.94;99732.13;7310542;19;129984;-66
2022/12/25 09:01:00;;;;;;;30.33;3.42;;;;;;;20.00;61.25;99724.53;7310749;19;129136;-67
2022/12/25 09:03:26;;;;;;;36.28;3.33;;;;;;;19.92;60.65;99713.88;7312421;19;130471;-68
2022/12/25 09:05:53;;;;;;;17.50;1.90;;;;;;;19.94;61.45;99719.81;7310799;19;129827;-65
2022/12/25 09:08:20;;;;;;;20.65;2.20;;;;;;;19.92;61.38;99721.72;7309970;19;129208;-65
2022/12/25 09:10:46;;;;;;;14.23;1.63;;;;;;;19.87;61.33;99718.66;7307951;19;129176;-67
2022/12/25 09:13:12;;;;;;;39.67;3.83;;;;;;;19.86;61.74;99711.78;7311945;19;129980;-66
2022/12/25 09:15:38;;;;;;;14.50;1.53;;;;;;;19.85;61.77;99712.75;7310229;19;129414;-66
2022/12/25 09:18:04;;;;;;;29.33;2.87;;;;;;;19.79;61.63;99708.84;7307447;19;129584;-66
2022/12/25 09:20:30;;;;;;;18.27;2.15;;;;;;;19.82;62.59;99715.59;7309759;19;129148;-67
2022/12/25 09:22:55;;;;;;;42.72;4.35;;;;;;;19.81;63.64;99706.13;7310143;19;129271;-67
2022/12/25 09:25:20;;;;;;;14.00;2.08;;;;;;;19.80;62.83;99696.66;7309601;19;130048;-67
2022/12/25 09:27:46;;;;;;;13.85;1.52;;;;;;;19.81;62.51;99690.47;7310736;19;130520;-64
2022/12/25 09:30:11;;;;;;;18.58;1.95;;;;;;;19.82;63.36;99699.94;7310849;19;128799;-65
2022/12/25 09:32:39;;;;;;;40.40;3.83;;;;;;;19.79;63.01;99674.09;7310490;19;129108;-64
2022/12/25 09:35:07;;;;;;;58.20;6.32;;;;;;;19.88;63.07;99668.13;7310658;19;130190;-67
2022/12/25 09:37:33;;;;;;;26.17;2.97;;;;;;;19.86;62.86;99675.25;7309096;19;130408;-64
2022/12/25 09:39:58;;;;;;;21.35;2.42;;;;;;;19.74;64.00;99658.00;7311282;19;129426;-65
2022/12/25 09:42:27;;;;;;;39.28;3.90;;;;;;;19.92;64.10;99674.75;7308248;19;129664;-66
2022/12/25 09:45:13;;;;;;;20.42;2.78;;;;;;;19.92;64.27;99662.53;7309176;19;131861;-66
2022/12/25 09:47:42;;;;;;;15.75;1.85;;;;;;;19.94;63.52;99655.41;7311022;19;129163;-65
2022/12/25 09:50:13;;;;;;;16.25;2.15;;;;;;;19.95;64.16;99659.66;7309182;19;129662;-67
2022/12/25 09:52:39;;;;;;;17.42;2.05;;;;;;;19.84;63.56;99640.63;7309106;19;129969;-67
2022/12/25 09:55:11;;;;;;;45.17;4.93;;;;;;;19.97;64.25;99651.72;7309210;19;129308;-64
2022/12/25 09:57:37;;;;;;;20.60;2.13;;;;;;;19.95;63.42;99646.63;7306963;19;132574;-68
2022/12/25 10:00:11;;;;;;;20.00;2.33;;;;;;;19.94;64.24;99644.97;7309425;19;129060;-65
2022/12/25 10:03:04;;;;;;;18.55;2.10;;;;;;;19.96;64.01;99640.47;7308635;19;130031;-67
2022/12/25 10:05:51;;;;;;;21.55;2.25;;;;;;;19.95;64.29;99645.81;7308670;19;129372;-67
2022/12/25 10:08:22;;;;;;;8.50;0.93;;;;;;;19.91;64.87;99640.03;7311649;19;130303;-67
2022/12/25 10:11:06;;;;;;;11.43;1.48;;;;;;;19.90;64.98;99653.19;7307971;19;129255;-68
2022/12/25 10:13:56;;;;;;;20.63;2.22;;;;;;;19.92;64.84;99654.72;7308459;19;129412;-65
2022/12/25 10:16:55;;;;;;;24.80;2.55;;;;;;;19.93;64.80;99655.53;7307008;19;130562;-67
2022/12/25 10:19:33;;;;;;;25.40;2.90;;;;;;;19.90;64.33;99661.03;7306423;19;129264;-66
2022/12/25 10:22:09;;;;;;;19.85;2.20;;;;;;;19.88;64.40;99663.75;7306744;19;130733;-65
2022/12/25 10:24:41;;;;;;;24.98;2.55;;;;;;;19.86;64.75;99649.16;7308187;19;129576;-65
2022/12/25 10:27:16;;;;;;;38.83;3.47;;;;;;;19.84;64.52;99644.09;7307245;19;129484;-65
2022/12/25 10:29:44;;;;;;;25.20;2.40;;;;;;;19.72;63.76;99626.03;7309690;19;130013;-67
2022/12/25 10:32:09;;;;;;;7.82;1.10;;;;;;;19.79;64.65;99648.00;7307380;19;129221;-66
2022/12/25 10:34:38;;;;;;;22.88;2.35;;;;;;;19.77;64.53;99642.09;7308545;19;130149;-67
2022/12/25 10:37:04;;;;;;;38.10;3.75;;;;;;;19.76;64.01;99627.41;7306031;19;132408;-66
2022/12/25 10:39:29;;;;;;;28.60;3.13;;;;;;;19.74;63.29;99603.22;7309260;19;130230;-66
2022/12/25 10:42:08;;;;;;;17.20;2.17;;;;;;;19.61;64.61;99592.16;7312560;19;131162;-68
2022/12/25 10:44:33;;;;;;;24.70;3.00;;;;;;;19.74;64.48;99626.69;7315204;19;129395;-67
2022/12/25 10:47:01;;;;;;;19.95;2.58;;;;;;;19.75;64.72;99626.56;7312304;19;129478;-66
2022/12/25 10:49:38;;;;;;;42.40;4.13;;;;;;;19.76;65.26;99628.25;7312933;19;132024;-67
2022/12/25 10:52:18;;;;;;;14.55;1.60;;;;;;;19.75;64.46;99629.19;7313122;19;129617;-66
2022/12/25 10:54:44;;;;;;;25.85;2.90;;;;;;;19.74;64.02;99621.47;7315792;19;129406;-67
2022/12/25 10:57:09;;;;;;;13.88;1.48;;;;;;;19.78;63.92;99625.50;7314358;19;130852;-67
2022/12/25 10:59:50;;;;;;;12.88;1.67;;;;;;;19.79;64.62;99617.56;7316941;19;129482;-66
2022/12/25 11:02:39;;;;;;;21.65;2.20;;;;;;;19.80;63.59;99610.56;7312863;19;129190;-67
2022/12/25 11:05:11;;;;;;;55.17;6.75;;;;;;;19.81;64.56;99607.00;7310953;19;129765;-67
2022/12/25 11:07:50;;;;;;;38.10;3.40;;;;;;;19.72;63.37;99610.38;7315135;19;129723;-66
2022/12/25 11:10:20;;;;;;;30.48;3.10;;;;;;;19.58;64.15;99611.50;7314958;19;129724;-65
2022/12/25 11:12:46;;;;;;;18.42;1.85;;;;;;;19.57;62.75;99596.81;7315885;19;129079;-65
2022/12/25 11:15:32;;;;;;;25.23;3.13;;;;;;;19.42;64.36;99583.25;7313821;19;130137;-66
2022/12/25 11:17:58;;;;;;;10.60;1.55;;;;;;;19.57;63.63;99611.63;7308969;19;132850;-66
2022/12/25 11:20:24;;;;;;;29.60;3.05;;;;;;;19.64;62.07;99612.75;7313812;19;129236;-65
2022/12/25 11:22:50;;;;;;;26.60;2.72;;;;;;;19.67;62.22;99617.75;7314009;19;129479;-66
2022/12/25 11:25:24;;;;;;;21.63;2.40;;;;;;;19.73;62.05;99617.22;7311969;19;129021;-67
2022/12/25 11:28:01;;;;;;;15.82;1.90;;;;;;;19.70;62.51;99612.28;7314570;19;129526;-67
2022/12/25 11:30:29;;;;;;;19.15;2.38;;;;;;;19.76;61.95;99607.38;7313989;19;131594;-65
2022/12/25 11:33:03;;;;;;;32.53;3.40;;;;;;;19.73;61.67;99593.75;7312910;19;129214;-67
2022/12/25 11:35:34;;;;;;;33.97;3.53;;;;;;;19.74;61.93;99603.22;7311857;19;128823;-64
2022/12/25 11:38:00;;;;;;;8.30;1.15;;;;;;;19.72;61.50;99600.75;7314034;19;129518;-66
2022/12/25 11:40:33;;;;;;;22.23;2.90;;;;;;;19.70;62.65;99594.81;7312595;19;129575;-67
2022/12/25 11:43:24;;;;;;;16.40;2.22;;;;;;;19.69;62.95;99574.09;7313298;19;130117;-66
2022/12/25 11:46:05;;;;;;;19.95;2.15;;;;;;;19.68;62.91;99562.03;7312092;19;129228;-66
2022/12/25 11:48:35;;;;;;;19.00;2.03;;;;;;;19.67;63.06;99555.16;7313054;19;131802;-67
2022/12/25 11:51:04;;;;;;;52.78;4.47;;;;;;;19.64;63.38;99561.44;7313610;19;130345;-66
2022/12/25 11:53:41;;;;;;;24.58;2.53;;;;;;;19.66;63.87;99553.50;7315342;19;129139;-68
2022/12/25 11:56:10;;;;;;;16.27;1.65;;;;;;;19.65;63.63;99541.41;7313824;19;129402;-67
2022/12/25 11:58:43;;;;;;;16.20;1.60;;;;;;;19.61;63.34;99529.56;7311894;19;129502;-65
2022/12/25 12:01:17;;;;;;;14.98;1.77;;;;;;;19.65;64.04;99530.97;7311603;19;130170;-68
2022/12/25 12:03:43;;;;;;;20.92;2.13;;;;;;;19.67;63.32;99518.66;7314327;19;130113;-67
2022/12/25 12:06:13;;;;;;;20.98;2.03;;;;;;;19.59;64.28;99500.19;7312773;19;130099;-65
2022/12/25 12:08:39;;;;;;;11.73;1.48;;;;;;;19.69;64.16;99509.72;7313553;19;129708;-67
2022/12/25 12:11:44;;;;;;;20.20;2.23;;;;;;;19.73;65.46;99510.28;7311128;19;129763;-65
2022/12/25 12:14:09;;;;;;;20.58;2.45;;;;;;;19.77;64.35;99503.84;7314438;19;130509;-66
2022/12/25 12:16:35;;;;;;;19.08;2.08;;;;;;;19.78;64.39;99492.47;7309792;19;130979;-66
2022/12/25 12:19:25;;;;;;;35.53;3.58;;;;;;;19.78;65.18;99495.91;7308148;19;129491;-66
2022/12/25 12:21:54;;;;;;;21.38;2.15;;;;;;;19.82;64.18;99496.47;7311326;19;129247;-64
2022/12/25 12:24:22;;;;;;;43.92;4.50;;;;;;;19.85;63.35;99477.97;7313724;19;129746;-67
2022/12/25 12:27:01;;;;;;;18.52;1.88;;;;;;;19.84;65.04;99473.69;7311018;19;129512;-66
2022/12/25 12:29:31;;;;;;;17.98;2.10;;;;;;;19.85;64.70;99483.19;7312548;19;130443;-65
2022/12/25 12:32:01;;;;;;;10.48;1.42;;;;;;;19.84;64.80;99487.56;7310785;19;130217;-66
2022/12/25 12:34:41;;;;;;;20.63;2.45;;;;;;;19.82;64.75;99486.84;7312703;19;130114;-66
2022/12/25 12:37:29;;;;;;;25.73;2.75;;;;;;;19.82;64.91;99488.63;7311858;19;130150;-66
2022/12/25 12:39:55;;;;;;;34.40;3.35;;;;;;;19.81;63.77;99490.44;7311794;19;129386;-67
2022/12/25 12:42:34;;;;;;;23.60;2.43;;;;;;;19.82;64.96;99493.84;7310731;19;129091;-68
2022/12/25 12:45:15;;;;;;;37.95;4.65;;;;;;;19.84;64.61;99494.56;7312612;19;129702;-64
2022/12/25 12:47:45;;;;;;;17.80;2.03;;;;;;;19.79;64.22;99457.59;7312394;19;129076;-65
2022/12/25 12:50:26;;;;;;;19.80;2.20;;;;;;;19.64;64.79;99430.22;7310246;19;132003;-66
2022/12/25 12:52:51;;;;;;;20.13;2.28;;;;;;;19.77;64.26;99451.69;7310671;19;129407;-67
2022/12/25 12:55:27;;;;;;;16.35;1.95;;;;;;;19.72;64.51;99461.72;7310319;19;129832;-66
2022/12/25 12:57:58;;;;;;;41.17;4.25;;;;;;;19.72;65.09;99465.13;7310612;19;129008;-66
2022/12/25 13:00:28;;;;;;;20.95;2.45;;;;;;;19.69;64.58;99444.53;7312074;19;129079;-67
2022/12/25 13:02:56;;;;;;;20.58;2.40;;;;;;;19.70;64.24;99440.13;7311761;19;129620;-66
2022/12/25 13:05:30;;;;;;;18.98;2.10;;;;;;;19.68;64.79;99431.63;7311616;19;129048;-65
2022/12/25 13:08:06;;;;;;;26.95;3.05;;;;;;;19.65;65.20;99405.81;7307800;19;128989;-67
2022/12/25 13:10:35;;;;;;;36.60;3.75;;;;;;;19.57;64.83;99408.25;7309711;19;129679;-66
2022/12/25 13:13:06;;;;;;;21.13;2.42;;;;;;;19.67;64.84;99424.75;7312668;19;129171;-67